<?xml version="1.0" encoding="UTF-8" standalone="no" ?>
<gpx xmlns="http://www.topografix.com/GPX/1/1" xmlns:xsi="http://www.w3.org/2001/XMLSchema-instance" xsi:schemaLocation="http://www.topografix.com/GPX/1/1 http://www.topografix.com/GPX/1/1/gpx.xsd" version="1.1" creator="VisuGPX - https://www.visugpx.com">
  <metadata>
    <name>odos 25 kilometres</name>
    <desc><![CDATA[entrainement trajet rando odos 25km]]></desc>
  </metadata>
  <trk>
    <name><![CDATA[OR-6874124--Odos:Odos2017-25km]]></name>
    <trkseg>
      <trkpt lat="43.19699" lon="0.05865">
        <ele>341</ele>
        <time>2017-01-01T21:46:24Z</time>
      </trkpt>
      <trkpt lat="43.19609" lon="0.05862">
        <ele>343</ele>
        <time>2017-01-01T21:48:24Z</time>
      </trkpt>
      <trkpt lat="43.19437" lon="0.05897">
        <ele>345</ele>
        <time>2017-01-01T21:50:24Z</time>
      </trkpt>
      <trkpt lat="43.19159" lon="0.0606">
        <ele>348</ele>
        <time>2017-01-01T21:52:24Z</time>
      </trkpt>
      <trkpt lat="43.19014" lon="0.06079">
        <ele>350</ele>
        <time>2017-01-01T21:54:24Z</time>
      </trkpt>
      <trkpt lat="43.18904" lon="0.06158">
        <ele>352</ele>
        <time>2017-01-01T21:56:24Z</time>
      </trkpt>
      <trkpt lat="43.18836" lon="0.06283">
        <ele>353</ele>
        <time>2017-01-01T21:58:24Z</time>
      </trkpt>
      <trkpt lat="43.18806" lon="0.06201">
        <ele>354</ele>
        <time>2017-01-01T22:00:24Z</time>
      </trkpt>
      <trkpt lat="43.18559" lon="0.06375">
        <ele>360</ele>
        <time>2017-01-01T22:02:24Z</time>
      </trkpt>
      <trkpt lat="43.18271" lon="0.06592">
        <ele>364</ele>
        <time>2017-01-01T22:04:24Z</time>
      </trkpt>
      <trkpt lat="43.18024" lon="0.06523">
        <ele>369</ele>
        <time>2017-01-01T22:06:24Z</time>
      </trkpt>
      <trkpt lat="43.18061" lon="0.06283">
        <ele>371</ele>
        <time>2017-01-01T22:08:24Z</time>
      </trkpt>
      <trkpt lat="43.18193" lon="0.06189">
        <ele>368</ele>
        <time>2017-01-01T22:10:24Z</time>
      </trkpt>
      <trkpt lat="43.18417" lon="0.06017">
        <ele>365</ele>
        <time>2017-01-01T22:12:24Z</time>
      </trkpt>
      <trkpt lat="43.18352" lon="0.05781">
        <ele>364</ele>
        <time>2017-01-01T22:14:24Z</time>
      </trkpt>
      <trkpt lat="43.18333" lon="0.05576">
        <ele>365</ele>
        <time>2017-01-01T22:16:24Z</time>
      </trkpt>
      <trkpt lat="43.1833" lon="0.05555">
        <ele>365</ele>
        <time>2017-01-01T22:18:24Z</time>
      </trkpt>
      <trkpt lat="43.1832" lon="0.05549">
        <ele>364</ele>
        <time>2017-01-01T22:20:24Z</time>
      </trkpt>
      <trkpt lat="43.18314" lon="0.05535">
        <ele>364</ele>
        <time>2017-01-01T22:22:24Z</time>
      </trkpt>
      <trkpt lat="43.18309" lon="0.05376">
        <ele>361</ele>
        <time>2017-01-01T22:24:24Z</time>
      </trkpt>
      <trkpt lat="43.18296" lon="0.05248">
        <ele>355</ele>
        <time>2017-01-01T22:26:24Z</time>
      </trkpt>
      <trkpt lat="43.18299" lon="0.05213">
        <ele>353</ele>
        <time>2017-01-01T22:28:24Z</time>
      </trkpt>
      <trkpt lat="43.18293" lon="0.05212">
        <ele>353</ele>
        <time>2017-01-01T22:30:24Z</time>
      </trkpt>
      <trkpt lat="43.18275" lon="0.0523">
        <ele>354</ele>
        <time>2017-01-01T22:32:24Z</time>
      </trkpt>
      <trkpt lat="43.1828" lon="0.05238">
        <ele>354</ele>
        <time>2017-01-01T22:34:24Z</time>
      </trkpt>
      <trkpt lat="43.18268" lon="0.05251">
        <ele>355</ele>
        <time>2017-01-01T22:36:24Z</time>
      </trkpt>
      <trkpt lat="43.18253" lon="0.05261">
        <ele>356</ele>
        <time>2017-01-01T22:38:24Z</time>
      </trkpt>
      <trkpt lat="43.18242" lon="0.05264">
        <ele>356</ele>
        <time>2017-01-01T22:40:24Z</time>
      </trkpt>
      <trkpt lat="43.18235" lon="0.05269">
        <ele>357</ele>
        <time>2017-01-01T22:42:24Z</time>
      </trkpt>
      <trkpt lat="43.18223" lon="0.05275">
        <ele>357</ele>
        <time>2017-01-01T22:44:24Z</time>
      </trkpt>
      <trkpt lat="43.18207" lon="0.05294">
        <ele>359</ele>
        <time>2017-01-01T22:46:24Z</time>
      </trkpt>
      <trkpt lat="43.18182" lon="0.05305">
        <ele>361</ele>
        <time>2017-01-01T22:48:24Z</time>
      </trkpt>
      <trkpt lat="43.18176" lon="0.05318">
        <ele>362</ele>
        <time>2017-01-01T22:50:24Z</time>
      </trkpt>
      <trkpt lat="43.18175" lon="0.05336">
        <ele>363</ele>
        <time>2017-01-01T22:52:24Z</time>
      </trkpt>
      <trkpt lat="43.18179" lon="0.05364">
        <ele>363</ele>
        <time>2017-01-01T22:54:24Z</time>
      </trkpt>
      <trkpt lat="43.18185" lon="0.05478">
        <ele>366</ele>
        <time>2017-01-01T22:56:24Z</time>
      </trkpt>
      <trkpt lat="43.18107" lon="0.05515">
        <ele>369</ele>
        <time>2017-01-01T22:58:24Z</time>
      </trkpt>
      <trkpt lat="43.17936" lon="0.05582">
        <ele>374</ele>
        <time>2017-01-01T23:00:24Z</time>
      </trkpt>
      <trkpt lat="43.17921" lon="0.0551">
        <ele>372</ele>
        <time>2017-01-01T23:02:24Z</time>
      </trkpt>
      <trkpt lat="43.17788" lon="0.05572">
        <ele>372</ele>
        <time>2017-01-01T23:04:24Z</time>
      </trkpt>
      <trkpt lat="43.17738" lon="0.05596">
        <ele>372</ele>
        <time>2017-01-01T23:06:24Z</time>
      </trkpt>
      <trkpt lat="43.17723" lon="0.05586">
        <ele>370</ele>
        <time>2017-01-01T23:08:24Z</time>
      </trkpt>
      <trkpt lat="43.17739" lon="0.05496">
        <ele>368</ele>
        <time>2017-01-01T23:10:24Z</time>
      </trkpt>
      <trkpt lat="43.17757" lon="0.05468">
        <ele>367</ele>
        <time>2017-01-01T23:12:24Z</time>
      </trkpt>
      <trkpt lat="43.1777" lon="0.05426">
        <ele>365</ele>
        <time>2017-01-01T23:14:24Z</time>
      </trkpt>
      <trkpt lat="43.17763" lon="0.05409">
        <ele>364</ele>
        <time>2017-01-01T23:16:24Z</time>
      </trkpt>
      <trkpt lat="43.17761" lon="0.05384">
        <ele>364</ele>
        <time>2017-01-01T23:18:24Z</time>
      </trkpt>
      <trkpt lat="43.17751" lon="0.05367">
        <ele>364</ele>
        <time>2017-01-01T23:20:24Z</time>
      </trkpt>
      <trkpt lat="43.17742" lon="0.05352">
        <ele>364</ele>
        <time>2017-01-01T23:22:24Z</time>
      </trkpt>
      <trkpt lat="43.1775" lon="0.05328">
        <ele>364</ele>
        <time>2017-01-01T23:24:24Z</time>
      </trkpt>
      <trkpt lat="43.17761" lon="0.0532">
        <ele>364</ele>
        <time>2017-01-01T23:26:24Z</time>
      </trkpt>
      <trkpt lat="43.17764" lon="0.053">
        <ele>365</ele>
        <time>2017-01-01T23:28:24Z</time>
      </trkpt>
      <trkpt lat="43.1777" lon="0.05294">
        <ele>365</ele>
        <time>2017-01-01T23:30:24Z</time>
      </trkpt>
      <trkpt lat="43.17775" lon="0.05276">
        <ele>365</ele>
        <time>2017-01-01T23:32:24Z</time>
      </trkpt>
      <trkpt lat="43.17782" lon="0.05256">
        <ele>365</ele>
        <time>2017-01-01T23:34:24Z</time>
      </trkpt>
      <trkpt lat="43.178" lon="0.0525">
        <ele>365</ele>
        <time>2017-01-01T23:36:24Z</time>
      </trkpt>
      <trkpt lat="43.17816" lon="0.05246">
        <ele>365</ele>
        <time>2017-01-01T23:38:24Z</time>
      </trkpt>
      <trkpt lat="43.17838" lon="0.05232">
        <ele>366</ele>
        <time>2017-01-01T23:40:24Z</time>
      </trkpt>
      <trkpt lat="43.17875" lon="0.05197">
        <ele>365</ele>
        <time>2017-01-01T23:42:24Z</time>
      </trkpt>
      <trkpt lat="43.17949" lon="0.05144">
        <ele>363</ele>
        <time>2017-01-01T23:44:24Z</time>
      </trkpt>
      <trkpt lat="43.17984" lon="0.05132">
        <ele>362</ele>
        <time>2017-01-01T23:46:24Z</time>
      </trkpt>
      <trkpt lat="43.18041" lon="0.05128">
        <ele>361</ele>
        <time>2017-01-01T23:48:24Z</time>
      </trkpt>
      <trkpt lat="43.18059" lon="0.0508">
        <ele>364</ele>
        <time>2017-01-01T23:50:24Z</time>
      </trkpt>
      <trkpt lat="43.18064" lon="0.05033">
        <ele>364</ele>
        <time>2017-01-01T23:52:24Z</time>
      </trkpt>
      <trkpt lat="43.18047" lon="0.05005">
        <ele>365</ele>
        <time>2017-01-01T23:54:24Z</time>
      </trkpt>
      <trkpt lat="43.18014" lon="0.04995">
        <ele>365</ele>
        <time>2017-01-01T23:56:24Z</time>
      </trkpt>
      <trkpt lat="43.17978" lon="0.0499">
        <ele>365</ele>
        <time>2017-01-01T23:58:24Z</time>
      </trkpt>
      <trkpt lat="43.17836" lon="0.04888">
        <ele>369</ele>
        <time>2017-01-02T00:00:24Z</time>
      </trkpt>
      <trkpt lat="43.17717" lon="0.04802">
        <ele>374</ele>
        <time>2017-01-02T00:02:24Z</time>
      </trkpt>
      <trkpt lat="43.17677" lon="0.0482">
        <ele>374</ele>
        <time>2017-01-02T00:04:24Z</time>
      </trkpt>
      <trkpt lat="43.17569" lon="0.04671">
        <ele>388</ele>
        <time>2017-01-02T00:06:24Z</time>
      </trkpt>
      <trkpt lat="43.17427" lon="0.04587">
        <ele>394</ele>
        <time>2017-01-02T00:08:24Z</time>
      </trkpt>
      <trkpt lat="43.17299" lon="0.0463">
        <ele>403</ele>
        <time>2017-01-02T00:10:24Z</time>
      </trkpt>
      <trkpt lat="43.1728" lon="0.04618">
        <ele>406</ele>
        <time>2017-01-02T00:12:24Z</time>
      </trkpt>
      <trkpt lat="43.17268" lon="0.0459">
        <ele>409</ele>
        <time>2017-01-02T00:14:24Z</time>
      </trkpt>
      <trkpt lat="43.17255" lon="0.04573">
        <ele>411</ele>
        <time>2017-01-02T00:16:24Z</time>
      </trkpt>
      <trkpt lat="43.17231" lon="0.04578">
        <ele>413</ele>
        <time>2017-01-02T00:18:24Z</time>
      </trkpt>
      <trkpt lat="43.1716" lon="0.04612">
        <ele>417</ele>
        <time>2017-01-02T00:20:24Z</time>
      </trkpt>
      <trkpt lat="43.17137" lon="0.0465">
        <ele>417</ele>
        <time>2017-01-02T00:22:24Z</time>
      </trkpt>
      <trkpt lat="43.17091" lon="0.04663">
        <ele>422</ele>
        <time>2017-01-02T00:24:24Z</time>
      </trkpt>
      <trkpt lat="43.17057" lon="0.04678">
        <ele>424</ele>
        <time>2017-01-02T00:26:24Z</time>
      </trkpt>
      <trkpt lat="43.17037" lon="0.04668">
        <ele>426</ele>
        <time>2017-01-02T00:28:24Z</time>
      </trkpt>
      <trkpt lat="43.16991" lon="0.04689">
        <ele>429</ele>
        <time>2017-01-02T00:30:24Z</time>
      </trkpt>
      <trkpt lat="43.16943" lon="0.04668">
        <ele>432</ele>
        <time>2017-01-02T00:32:24Z</time>
      </trkpt>
      <trkpt lat="43.1692" lon="0.04768">
        <ele>433</ele>
        <time>2017-01-02T00:34:24Z</time>
      </trkpt>
      <trkpt lat="43.16841" lon="0.04787">
        <ele>438</ele>
        <time>2017-01-02T00:36:24Z</time>
      </trkpt>
      <trkpt lat="43.16761" lon="0.04785">
        <ele>440</ele>
        <time>2017-01-02T00:38:24Z</time>
      </trkpt>
      <trkpt lat="43.1675" lon="0.04866">
        <ele>441</ele>
        <time>2017-01-02T00:40:24Z</time>
      </trkpt>
      <trkpt lat="43.16673" lon="0.04883">
        <ele>436</ele>
        <time>2017-01-02T00:42:24Z</time>
      </trkpt>
      <trkpt lat="43.16549" lon="0.04572">
        <ele>454</ele>
        <time>2017-01-02T00:44:24Z</time>
      </trkpt>
      <trkpt lat="43.16543" lon="0.04531">
        <ele>455</ele>
        <time>2017-01-02T00:46:24Z</time>
      </trkpt>
      <trkpt lat="43.16533" lon="0.04523">
        <ele>455</ele>
        <time>2017-01-02T00:48:24Z</time>
      </trkpt>
      <trkpt lat="43.16522" lon="0.04526">
        <ele>456</ele>
        <time>2017-01-02T00:50:24Z</time>
      </trkpt>
      <trkpt lat="43.16503" lon="0.04511">
        <ele>457</ele>
        <time>2017-01-02T00:52:24Z</time>
      </trkpt>
      <trkpt lat="43.1649" lon="0.04495">
        <ele>456</ele>
        <time>2017-01-02T00:54:24Z</time>
      </trkpt>
      <trkpt lat="43.16481" lon="0.04479">
        <ele>453</ele>
        <time>2017-01-02T00:56:24Z</time>
      </trkpt>
      <trkpt lat="43.16473" lon="0.04466">
        <ele>452</ele>
        <time>2017-01-02T00:58:24Z</time>
      </trkpt>
      <trkpt lat="43.16455" lon="0.04427">
        <ele>447</ele>
        <time>2017-01-02T01:00:24Z</time>
      </trkpt>
      <trkpt lat="43.1645" lon="0.04408">
        <ele>446</ele>
        <time>2017-01-02T01:02:24Z</time>
      </trkpt>
      <trkpt lat="43.16454" lon="0.04394">
        <ele>444</ele>
        <time>2017-01-02T01:04:24Z</time>
      </trkpt>
      <trkpt lat="43.16465" lon="0.04384">
        <ele>444</ele>
        <time>2017-01-02T01:06:24Z</time>
      </trkpt>
      <trkpt lat="43.16471" lon="0.04363">
        <ele>442</ele>
        <time>2017-01-02T01:08:24Z</time>
      </trkpt>
      <trkpt lat="43.16473" lon="0.04336">
        <ele>440</ele>
        <time>2017-01-02T01:10:24Z</time>
      </trkpt>
      <trkpt lat="43.16479" lon="0.04318">
        <ele>438</ele>
        <time>2017-01-02T01:12:24Z</time>
      </trkpt>
      <trkpt lat="43.16482" lon="0.04299">
        <ele>436</ele>
        <time>2017-01-02T01:14:24Z</time>
      </trkpt>
      <trkpt lat="43.16481" lon="0.04282">
        <ele>434</ele>
        <time>2017-01-02T01:16:24Z</time>
      </trkpt>
      <trkpt lat="43.16486" lon="0.04262">
        <ele>432</ele>
        <time>2017-01-02T01:18:24Z</time>
      </trkpt>
      <trkpt lat="43.1649" lon="0.04244">
        <ele>430</ele>
        <time>2017-01-02T01:20:24Z</time>
      </trkpt>
      <trkpt lat="43.16493" lon="0.04231">
        <ele>428</ele>
        <time>2017-01-02T01:22:24Z</time>
      </trkpt>
      <trkpt lat="43.1649" lon="0.04217">
        <ele>427</ele>
        <time>2017-01-02T01:24:24Z</time>
      </trkpt>
      <trkpt lat="43.16485" lon="0.04195">
        <ele>424</ele>
        <time>2017-01-02T01:26:24Z</time>
      </trkpt>
      <trkpt lat="43.16484" lon="0.04179">
        <ele>421</ele>
        <time>2017-01-02T01:28:24Z</time>
      </trkpt>
      <trkpt lat="43.16495" lon="0.04165">
        <ele>420</ele>
        <time>2017-01-02T01:30:24Z</time>
      </trkpt>
      <trkpt lat="43.16503" lon="0.04168">
        <ele>422</ele>
        <time>2017-01-02T01:32:24Z</time>
      </trkpt>
      <trkpt lat="43.16514" lon="0.04174">
        <ele>424</ele>
        <time>2017-01-02T01:34:24Z</time>
      </trkpt>
      <trkpt lat="43.16523" lon="0.04178">
        <ele>426</ele>
        <time>2017-01-02T01:36:24Z</time>
      </trkpt>
      <trkpt lat="43.16529" lon="0.04167">
        <ele>426</ele>
        <time>2017-01-02T01:38:24Z</time>
      </trkpt>
      <trkpt lat="43.16523" lon="0.04145">
        <ele>422</ele>
        <time>2017-01-02T01:40:24Z</time>
      </trkpt>
      <trkpt lat="43.16519" lon="0.04125">
        <ele>419</ele>
        <time>2017-01-02T01:42:24Z</time>
      </trkpt>
      <trkpt lat="43.16517" lon="0.04106">
        <ele>416</ele>
        <time>2017-01-02T01:44:24Z</time>
      </trkpt>
      <trkpt lat="43.16521" lon="0.04085">
        <ele>414</ele>
        <time>2017-01-02T01:46:24Z</time>
      </trkpt>
      <trkpt lat="43.16522" lon="0.04062">
        <ele>412</ele>
        <time>2017-01-02T01:48:24Z</time>
      </trkpt>
      <trkpt lat="43.16526" lon="0.04038">
        <ele>410</ele>
        <time>2017-01-02T01:50:24Z</time>
      </trkpt>
      <trkpt lat="43.16538" lon="0.04014">
        <ele>409</ele>
        <time>2017-01-02T01:52:24Z</time>
      </trkpt>
      <trkpt lat="43.16555" lon="0.03973">
        <ele>407</ele>
        <time>2017-01-02T01:54:24Z</time>
      </trkpt>
      <trkpt lat="43.16567" lon="0.03957">
        <ele>408</ele>
        <time>2017-01-02T01:56:24Z</time>
      </trkpt>
      <trkpt lat="43.16573" lon="0.03944">
        <ele>408</ele>
        <time>2017-01-02T01:58:24Z</time>
      </trkpt>
      <trkpt lat="43.16581" lon="0.03928">
        <ele>408</ele>
        <time>2017-01-02T02:00:24Z</time>
      </trkpt>
      <trkpt lat="43.16589" lon="0.0391">
        <ele>407</ele>
        <time>2017-01-02T02:02:24Z</time>
      </trkpt>
      <trkpt lat="43.16583" lon="0.03898">
        <ele>404</ele>
        <time>2017-01-02T02:04:24Z</time>
      </trkpt>
      <trkpt lat="43.16576" lon="0.03886">
        <ele>402</ele>
        <time>2017-01-02T02:06:24Z</time>
      </trkpt>
      <trkpt lat="43.16564" lon="0.03888">
        <ele>400</ele>
        <time>2017-01-02T02:08:24Z</time>
      </trkpt>
      <trkpt lat="43.16551" lon="0.03896">
        <ele>398</ele>
        <time>2017-01-02T02:10:24Z</time>
      </trkpt>
      <trkpt lat="43.16538" lon="0.03898">
        <ele>396</ele>
        <time>2017-01-02T02:12:24Z</time>
      </trkpt>
      <trkpt lat="43.16528" lon="0.039">
        <ele>395</ele>
        <time>2017-01-02T02:14:24Z</time>
      </trkpt>
      <trkpt lat="43.16516" lon="0.03904">
        <ele>394</ele>
        <time>2017-01-02T02:16:24Z</time>
      </trkpt>
      <trkpt lat="43.165" lon="0.03908">
        <ele>391</ele>
        <time>2017-01-02T02:18:24Z</time>
      </trkpt>
      <trkpt lat="43.1649" lon="0.03892">
        <ele>387</ele>
        <time>2017-01-02T02:20:24Z</time>
      </trkpt>
      <trkpt lat="43.16485" lon="0.03873">
        <ele>383</ele>
        <time>2017-01-02T02:22:24Z</time>
      </trkpt>
      <trkpt lat="43.16491" lon="0.03854">
        <ele>380</ele>
        <time>2017-01-02T02:24:24Z</time>
      </trkpt>
      <trkpt lat="43.16488" lon="0.03832">
        <ele>376</ele>
        <time>2017-01-02T02:26:24Z</time>
      </trkpt>
      <trkpt lat="43.16484" lon="0.03809">
        <ele>370</ele>
        <time>2017-01-02T02:28:24Z</time>
      </trkpt>
      <trkpt lat="43.16473" lon="0.03806">
        <ele>368</ele>
        <time>2017-01-02T02:30:24Z</time>
      </trkpt>
      <trkpt lat="43.16462" lon="0.03797">
        <ele>365</ele>
        <time>2017-01-02T02:32:24Z</time>
      </trkpt>
      <trkpt lat="43.16445" lon="0.03798">
        <ele>363</ele>
        <time>2017-01-02T02:34:24Z</time>
      </trkpt>
      <trkpt lat="43.1643" lon="0.03803">
        <ele>362</ele>
        <time>2017-01-02T02:36:24Z</time>
      </trkpt>
      <trkpt lat="43.16403" lon="0.03866">
        <ele>370</ele>
        <time>2017-01-02T02:38:24Z</time>
      </trkpt>
      <trkpt lat="43.16393" lon="0.03914">
        <ele>376</ele>
        <time>2017-01-02T02:40:24Z</time>
      </trkpt>
      <trkpt lat="43.16364" lon="0.03946">
        <ele>375</ele>
        <time>2017-01-02T02:42:24Z</time>
      </trkpt>
      <trkpt lat="43.1631" lon="0.03981">
        <ele>372</ele>
        <time>2017-01-02T02:44:24Z</time>
      </trkpt>
      <trkpt lat="43.16288" lon="0.04015">
        <ele>374</ele>
        <time>2017-01-02T02:46:24Z</time>
      </trkpt>
      <trkpt lat="43.16288" lon="0.04059">
        <ele>380</ele>
        <time>2017-01-02T02:48:24Z</time>
      </trkpt>
      <trkpt lat="43.16284" lon="0.04095">
        <ele>385</ele>
        <time>2017-01-02T02:50:24Z</time>
      </trkpt>
      <trkpt lat="43.16263" lon="0.04136">
        <ele>386</ele>
        <time>2017-01-02T02:52:24Z</time>
      </trkpt>
      <trkpt lat="43.1625" lon="0.0418">
        <ele>389</ele>
        <time>2017-01-02T02:54:24Z</time>
      </trkpt>
      <trkpt lat="43.16256" lon="0.04282">
        <ele>398</ele>
        <time>2017-01-02T02:56:24Z</time>
      </trkpt>
      <trkpt lat="43.16263" lon="0.04358">
        <ele>408</ele>
        <time>2017-01-02T02:58:24Z</time>
      </trkpt>
      <trkpt lat="43.16276" lon="0.04383">
        <ele>414</ele>
        <time>2017-01-02T03:00:24Z</time>
      </trkpt>
      <trkpt lat="43.16292" lon="0.04383">
        <ele>417</ele>
        <time>2017-01-02T03:02:24Z</time>
      </trkpt>
      <trkpt lat="43.16303" lon="0.0436">
        <ele>417</ele>
        <time>2017-01-02T03:04:24Z</time>
      </trkpt>
      <trkpt lat="43.16311" lon="0.04319">
        <ele>414</ele>
        <time>2017-01-02T03:06:24Z</time>
      </trkpt>
      <trkpt lat="43.16324" lon="0.04287">
        <ele>414</ele>
        <time>2017-01-02T03:08:24Z</time>
      </trkpt>
      <trkpt lat="43.16361" lon="0.04242">
        <ele>417</ele>
        <time>2017-01-02T03:10:24Z</time>
      </trkpt>
      <trkpt lat="43.16384" lon="0.04228">
        <ele>419</ele>
        <time>2017-01-02T03:12:24Z</time>
      </trkpt>
      <trkpt lat="43.16398" lon="0.04244">
        <ele>424</ele>
        <time>2017-01-02T03:14:24Z</time>
      </trkpt>
      <trkpt lat="43.16393" lon="0.04266">
        <ele>426</ele>
        <time>2017-01-02T03:16:24Z</time>
      </trkpt>
      <trkpt lat="43.16385" lon="0.04317">
        <ele>430</ele>
        <time>2017-01-02T03:18:24Z</time>
      </trkpt>
      <trkpt lat="43.16382" lon="0.04373">
        <ele>435</ele>
        <time>2017-01-02T03:20:24Z</time>
      </trkpt>
      <trkpt lat="43.16376" lon="0.04465">
        <ele>442</ele>
        <time>2017-01-02T03:22:24Z</time>
      </trkpt>
      <trkpt lat="43.16371" lon="0.04587">
        <ele>451</ele>
        <time>2017-01-02T03:24:24Z</time>
      </trkpt>
      <trkpt lat="43.16369" lon="0.04629">
        <ele>453</ele>
        <time>2017-01-02T03:26:24Z</time>
      </trkpt>
      <trkpt lat="43.16336" lon="0.04646">
        <ele>452</ele>
        <time>2017-01-02T03:28:24Z</time>
      </trkpt>
      <trkpt lat="43.16285" lon="0.0465">
        <ele>452</ele>
        <time>2017-01-02T03:30:24Z</time>
      </trkpt>
      <trkpt lat="43.16194" lon="0.04675">
        <ele>450</ele>
        <time>2017-01-02T03:32:24Z</time>
      </trkpt>
      <trkpt lat="43.16167" lon="0.04658">
        <ele>447</ele>
        <time>2017-01-02T03:34:24Z</time>
      </trkpt>
      <trkpt lat="43.16145" lon="0.0452">
        <ele>420</ele>
        <time>2017-01-02T03:36:24Z</time>
      </trkpt>
      <trkpt lat="43.16117" lon="0.04437">
        <ele>403</ele>
        <time>2017-01-02T03:38:24Z</time>
      </trkpt>
      <trkpt lat="43.16112" lon="0.0441">
        <ele>398</ele>
        <time>2017-01-02T03:40:24Z</time>
      </trkpt>
      <trkpt lat="43.16109" lon="0.0439">
        <ele>395</ele>
        <time>2017-01-02T03:42:24Z</time>
      </trkpt>
      <trkpt lat="43.16104" lon="0.04377">
        <ele>393</ele>
        <time>2017-01-02T03:44:24Z</time>
      </trkpt>
      <trkpt lat="43.16099" lon="0.04356">
        <ele>390</ele>
        <time>2017-01-02T03:46:24Z</time>
      </trkpt>
      <trkpt lat="43.16096" lon="0.04337">
        <ele>387</ele>
        <time>2017-01-02T03:48:24Z</time>
      </trkpt>
      <trkpt lat="43.16091" lon="0.0432">
        <ele>385</ele>
        <time>2017-01-02T03:50:24Z</time>
      </trkpt>
      <trkpt lat="43.16084" lon="0.04306">
        <ele>383</ele>
        <time>2017-01-02T03:52:24Z</time>
      </trkpt>
      <trkpt lat="43.16074" lon="0.04292">
        <ele>381</ele>
        <time>2017-01-02T03:54:24Z</time>
      </trkpt>
      <trkpt lat="43.16069" lon="0.0428">
        <ele>380</ele>
        <time>2017-01-02T03:56:24Z</time>
      </trkpt>
      <trkpt lat="43.16063" lon="0.04265">
        <ele>378</ele>
        <time>2017-01-02T03:58:24Z</time>
      </trkpt>
      <trkpt lat="43.16053" lon="0.04249">
        <ele>375</ele>
        <time>2017-01-02T04:00:24Z</time>
      </trkpt>
      <trkpt lat="43.16043" lon="0.04234">
        <ele>373</ele>
        <time>2017-01-02T04:02:24Z</time>
      </trkpt>
      <trkpt lat="43.16036" lon="0.04222">
        <ele>372</ele>
        <time>2017-01-02T04:04:24Z</time>
      </trkpt>
      <trkpt lat="43.16031" lon="0.04211">
        <ele>370</ele>
        <time>2017-01-02T04:06:24Z</time>
      </trkpt>
      <trkpt lat="43.16028" lon="0.04212">
        <ele>370</ele>
        <time>2017-01-02T04:08:24Z</time>
      </trkpt>
      <trkpt lat="43.16025" lon="0.04214">
        <ele>370</ele>
        <time>2017-01-02T04:10:24Z</time>
      </trkpt>
      <trkpt lat="43.16021" lon="0.04217">
        <ele>370</ele>
        <time>2017-01-02T04:12:24Z</time>
      </trkpt>
      <trkpt lat="43.16013" lon="0.04221">
        <ele>370</ele>
        <time>2017-01-02T04:14:24Z</time>
      </trkpt>
      <trkpt lat="43.16006" lon="0.04221">
        <ele>370</ele>
        <time>2017-01-02T04:16:24Z</time>
      </trkpt>
      <trkpt lat="43.16001" lon="0.04223">
        <ele>370</ele>
        <time>2017-01-02T04:18:24Z</time>
      </trkpt>
      <trkpt lat="43.16009" lon="0.04235">
        <ele>372</ele>
        <time>2017-01-02T04:20:24Z</time>
      </trkpt>
      <trkpt lat="43.16012" lon="0.04257">
        <ele>375</ele>
        <time>2017-01-02T04:22:24Z</time>
      </trkpt>
      <trkpt lat="43.16012" lon="0.04271">
        <ele>377</ele>
        <time>2017-01-02T04:24:24Z</time>
      </trkpt>
      <trkpt lat="43.16005" lon="0.0428">
        <ele>379</ele>
        <time>2017-01-02T04:26:24Z</time>
      </trkpt>
      <trkpt lat="43.16005" lon="0.04294">
        <ele>381</ele>
        <time>2017-01-02T04:28:24Z</time>
      </trkpt>
      <trkpt lat="43.16019" lon="0.0431">
        <ele>384</ele>
        <time>2017-01-02T04:30:24Z</time>
      </trkpt>
      <trkpt lat="43.16011" lon="0.04323">
        <ele>386</ele>
        <time>2017-01-02T04:32:24Z</time>
      </trkpt>
      <trkpt lat="43.16008" lon="0.04336">
        <ele>388</ele>
        <time>2017-01-02T04:34:24Z</time>
      </trkpt>
      <trkpt lat="43.16007" lon="0.04351">
        <ele>390</ele>
        <time>2017-01-02T04:36:24Z</time>
      </trkpt>
      <trkpt lat="43.15994" lon="0.04353">
        <ele>390</ele>
        <time>2017-01-02T04:38:24Z</time>
      </trkpt>
      <trkpt lat="43.15984" lon="0.04354">
        <ele>389</ele>
        <time>2017-01-02T04:40:24Z</time>
      </trkpt>
      <trkpt lat="43.15982" lon="0.04361">
        <ele>389</ele>
        <time>2017-01-02T04:42:24Z</time>
      </trkpt>
      <trkpt lat="43.15988" lon="0.04368">
        <ele>391</ele>
        <time>2017-01-02T04:44:24Z</time>
      </trkpt>
      <trkpt lat="43.15993" lon="0.0438">
        <ele>392</ele>
        <time>2017-01-02T04:46:24Z</time>
      </trkpt>
      <trkpt lat="43.15991" lon="0.04397">
        <ele>394</ele>
        <time>2017-01-02T04:48:24Z</time>
      </trkpt>
      <trkpt lat="43.15991" lon="0.04411">
        <ele>396</ele>
        <time>2017-01-02T04:50:24Z</time>
      </trkpt>
      <trkpt lat="43.15992" lon="0.04424">
        <ele>398</ele>
        <time>2017-01-02T04:52:24Z</time>
      </trkpt>
      <trkpt lat="43.15988" lon="0.04437">
        <ele>399</ele>
        <time>2017-01-02T04:54:24Z</time>
      </trkpt>
      <trkpt lat="43.15986" lon="0.04447">
        <ele>401</ele>
        <time>2017-01-02T04:56:24Z</time>
      </trkpt>
      <trkpt lat="43.15977" lon="0.04458">
        <ele>402</ele>
        <time>2017-01-02T04:58:24Z</time>
      </trkpt>
      <trkpt lat="43.15964" lon="0.04463">
        <ele>402</ele>
        <time>2017-01-02T05:00:24Z</time>
      </trkpt>
      <trkpt lat="43.15958" lon="0.04468">
        <ele>402</ele>
        <time>2017-01-02T05:02:24Z</time>
      </trkpt>
      <trkpt lat="43.15958" lon="0.04477">
        <ele>403</ele>
        <time>2017-01-02T05:04:24Z</time>
      </trkpt>
      <trkpt lat="43.15957" lon="0.04483">
        <ele>404</ele>
        <time>2017-01-02T05:06:24Z</time>
      </trkpt>
      <trkpt lat="43.15954" lon="0.0449">
        <ele>404</ele>
        <time>2017-01-02T05:08:24Z</time>
      </trkpt>
      <trkpt lat="43.15949" lon="0.04497">
        <ele>405</ele>
        <time>2017-01-02T05:10:24Z</time>
      </trkpt>
      <trkpt lat="43.15943" lon="0.04508">
        <ele>406</ele>
        <time>2017-01-02T05:12:24Z</time>
      </trkpt>
      <trkpt lat="43.15941" lon="0.04521">
        <ele>407</ele>
        <time>2017-01-02T05:14:24Z</time>
      </trkpt>
      <trkpt lat="43.15939" lon="0.04527">
        <ele>408</ele>
        <time>2017-01-02T05:16:24Z</time>
      </trkpt>
      <trkpt lat="43.15939" lon="0.04533">
        <ele>408</ele>
        <time>2017-01-02T05:18:24Z</time>
      </trkpt>
      <trkpt lat="43.15936" lon="0.04545">
        <ele>410</ele>
        <time>2017-01-02T05:20:24Z</time>
      </trkpt>
      <trkpt lat="43.15925" lon="0.04599">
        <ele>415</ele>
        <time>2017-01-02T05:22:24Z</time>
      </trkpt>
      <trkpt lat="43.15933" lon="0.04578">
        <ele>413</ele>
        <time>2017-01-02T05:24:24Z</time>
      </trkpt>
      <trkpt lat="43.15928" lon="0.04587">
        <ele>414</ele>
        <time>2017-01-02T05:26:24Z</time>
      </trkpt>
      <trkpt lat="43.15925" lon="0.046">
        <ele>415</ele>
        <time>2017-01-02T05:28:24Z</time>
      </trkpt>
      <trkpt lat="43.15912" lon="0.04647">
        <ele>420</ele>
        <time>2017-01-02T05:30:24Z</time>
      </trkpt>
      <trkpt lat="43.15906" lon="0.04655">
        <ele>420</ele>
        <time>2017-01-02T05:32:24Z</time>
      </trkpt>
      <trkpt lat="43.15901" lon="0.04666">
        <ele>421</ele>
        <time>2017-01-02T05:34:24Z</time>
      </trkpt>
      <trkpt lat="43.15895" lon="0.04673">
        <ele>421</ele>
        <time>2017-01-02T05:36:24Z</time>
      </trkpt>
      <trkpt lat="43.15879" lon="0.0468">
        <ele>419</ele>
        <time>2017-01-02T05:38:24Z</time>
      </trkpt>
      <trkpt lat="43.15865" lon="0.04686">
        <ele>418</ele>
        <time>2017-01-02T05:40:24Z</time>
      </trkpt>
      <trkpt lat="43.15855" lon="0.04696">
        <ele>418</ele>
        <time>2017-01-02T05:42:24Z</time>
      </trkpt>
      <trkpt lat="43.15849" lon="0.04714">
        <ele>419</ele>
        <time>2017-01-02T05:44:24Z</time>
      </trkpt>
      <trkpt lat="43.15844" lon="0.04724">
        <ele>419</ele>
        <time>2017-01-02T05:46:24Z</time>
      </trkpt>
      <trkpt lat="43.15841" lon="0.04743">
        <ele>421</ele>
        <time>2017-01-02T05:48:24Z</time>
      </trkpt>
      <trkpt lat="43.15842" lon="0.04756">
        <ele>423</ele>
        <time>2017-01-02T05:50:24Z</time>
      </trkpt>
      <trkpt lat="43.15856" lon="0.04769">
        <ele>427</ele>
        <time>2017-01-02T05:52:24Z</time>
      </trkpt>
      <trkpt lat="43.15878" lon="0.04775">
        <ele>432</ele>
        <time>2017-01-02T05:54:24Z</time>
      </trkpt>
      <trkpt lat="43.15907" lon="0.04755">
        <ele>435</ele>
        <time>2017-01-02T05:56:24Z</time>
      </trkpt>
      <trkpt lat="43.15936" lon="0.04726">
        <ele>436</ele>
        <time>2017-01-02T05:58:24Z</time>
      </trkpt>
      <trkpt lat="43.15962" lon="0.04713">
        <ele>438</ele>
        <time>2017-01-02T06:00:24Z</time>
      </trkpt>
      <trkpt lat="43.15983" lon="0.04714">
        <ele>442</ele>
        <time>2017-01-02T06:02:24Z</time>
      </trkpt>
      <trkpt lat="43.15996" lon="0.04732">
        <ele>447</ele>
        <time>2017-01-02T06:04:24Z</time>
      </trkpt>
      <trkpt lat="43.15993" lon="0.0475">
        <ele>449</ele>
        <time>2017-01-02T06:06:24Z</time>
      </trkpt>
      <trkpt lat="43.15975" lon="0.04789">
        <ele>450</ele>
        <time>2017-01-02T06:08:24Z</time>
      </trkpt>
      <trkpt lat="43.15962" lon="0.0484">
        <ele>453</ele>
        <time>2017-01-02T06:10:24Z</time>
      </trkpt>
      <trkpt lat="43.15961" lon="0.04878">
        <ele>457</ele>
        <time>2017-01-02T06:12:24Z</time>
      </trkpt>
      <trkpt lat="43.15979" lon="0.04888">
        <ele>461</ele>
        <time>2017-01-02T06:14:24Z</time>
      </trkpt>
      <trkpt lat="43.16012" lon="0.04899">
        <ele>465</ele>
        <time>2017-01-02T06:16:24Z</time>
      </trkpt>
      <trkpt lat="43.16027" lon="0.04972">
        <ele>470</ele>
        <time>2017-01-02T06:18:24Z</time>
      </trkpt>
      <trkpt lat="43.16035" lon="0.0505">
        <ele>470</ele>
        <time>2017-01-02T06:20:24Z</time>
      </trkpt>
      <trkpt lat="43.16063" lon="0.05092">
        <ele>465</ele>
        <time>2017-01-02T06:22:24Z</time>
      </trkpt>
      <trkpt lat="43.1605" lon="0.05134">
        <ele>464</ele>
        <time>2017-01-02T06:24:24Z</time>
      </trkpt>
      <trkpt lat="43.16024" lon="0.0515">
        <ele>466</ele>
        <time>2017-01-02T06:26:24Z</time>
      </trkpt>
      <trkpt lat="43.15993" lon="0.05155">
        <ele>468</ele>
        <time>2017-01-02T06:28:24Z</time>
      </trkpt>
      <trkpt lat="43.15961" lon="0.05188">
        <ele>467</ele>
        <time>2017-01-02T06:30:24Z</time>
      </trkpt>
      <trkpt lat="43.15945" lon="0.05252">
        <ele>464</ele>
        <time>2017-01-02T06:32:24Z</time>
      </trkpt>
      <trkpt lat="43.15939" lon="0.05323">
        <ele>460</ele>
        <time>2017-01-02T06:34:24Z</time>
      </trkpt>
      <trkpt lat="43.15924" lon="0.05332">
        <ele>463</ele>
        <time>2017-01-02T06:36:24Z</time>
      </trkpt>
      <trkpt lat="43.15915" lon="0.05392">
        <ele>462</ele>
        <time>2017-01-02T06:38:24Z</time>
      </trkpt>
      <trkpt lat="43.15884" lon="0.05455">
        <ele>462</ele>
        <time>2017-01-02T06:40:24Z</time>
      </trkpt>
      <trkpt lat="43.1587" lon="0.0548">
        <ele>462</ele>
        <time>2017-01-02T06:42:24Z</time>
      </trkpt>
      <trkpt lat="43.15876" lon="0.05446">
        <ele>463</ele>
        <time>2017-01-02T06:44:24Z</time>
      </trkpt>
      <trkpt lat="43.15867" lon="0.05431">
        <ele>464</ele>
        <time>2017-01-02T06:46:24Z</time>
      </trkpt>
      <trkpt lat="43.15848" lon="0.05403">
        <ele>466</ele>
        <time>2017-01-02T06:48:24Z</time>
      </trkpt>
      <trkpt lat="43.15865" lon="0.05272">
        <ele>465</ele>
        <time>2017-01-02T06:50:24Z</time>
      </trkpt>
      <trkpt lat="43.15869" lon="0.05183">
        <ele>463</ele>
        <time>2017-01-02T06:52:24Z</time>
      </trkpt>
      <trkpt lat="43.15885" lon="0.05131">
        <ele>466</ele>
        <time>2017-01-02T06:54:24Z</time>
      </trkpt>
      <trkpt lat="43.15903" lon="0.05073">
        <ele>469</ele>
        <time>2017-01-02T06:56:24Z</time>
      </trkpt>
      <trkpt lat="43.15926" lon="0.04947">
        <ele>461</ele>
        <time>2017-01-02T06:58:24Z</time>
      </trkpt>
      <trkpt lat="43.15887" lon="0.0492">
        <ele>450</ele>
        <time>2017-01-02T07:00:24Z</time>
      </trkpt>
      <trkpt lat="43.15865" lon="0.04903">
        <ele>444</ele>
        <time>2017-01-02T07:02:24Z</time>
      </trkpt>
      <trkpt lat="43.15871" lon="0.04883">
        <ele>443</ele>
        <time>2017-01-02T07:04:24Z</time>
      </trkpt>
      <trkpt lat="43.15885" lon="0.04863">
        <ele>444</ele>
        <time>2017-01-02T07:06:24Z</time>
      </trkpt>
      <trkpt lat="43.15887" lon="0.04838">
        <ele>442</ele>
        <time>2017-01-02T07:08:24Z</time>
      </trkpt>
      <trkpt lat="43.15874" lon="0.04857">
        <ele>442</ele>
        <time>2017-01-02T07:10:24Z</time>
      </trkpt>
      <trkpt lat="43.15858" lon="0.04852">
        <ele>438</ele>
        <time>2017-01-02T07:12:24Z</time>
      </trkpt>
      <trkpt lat="43.1585" lon="0.04842">
        <ele>436</ele>
        <time>2017-01-02T07:14:24Z</time>
      </trkpt>
      <trkpt lat="43.15835" lon="0.04844">
        <ele>433</ele>
        <time>2017-01-02T07:16:24Z</time>
      </trkpt>
      <trkpt lat="43.1583" lon="0.04822">
        <ele>430</ele>
        <time>2017-01-02T07:18:24Z</time>
      </trkpt>
      <trkpt lat="43.15807" lon="0.04805">
        <ele>422</ele>
        <time>2017-01-02T07:20:24Z</time>
      </trkpt>
      <trkpt lat="43.15784" lon="0.04795">
        <ele>415</ele>
        <time>2017-01-02T07:22:24Z</time>
      </trkpt>
      <trkpt lat="43.15762" lon="0.04784">
        <ele>409</ele>
        <time>2017-01-02T07:24:24Z</time>
      </trkpt>
      <trkpt lat="43.15751" lon="0.04786">
        <ele>406</ele>
        <time>2017-01-02T07:26:24Z</time>
      </trkpt>
      <trkpt lat="43.15714" lon="0.04767">
        <ele>401</ele>
        <time>2017-01-02T07:28:24Z</time>
      </trkpt>
      <trkpt lat="43.15705" lon="0.04732">
        <ele>400</ele>
        <time>2017-01-02T07:30:24Z</time>
      </trkpt>
      <trkpt lat="43.15719" lon="0.04671">
        <ele>398</ele>
        <time>2017-01-02T07:32:24Z</time>
      </trkpt>
      <trkpt lat="43.1572" lon="0.04655">
        <ele>397</ele>
        <time>2017-01-02T07:34:24Z</time>
      </trkpt>
      <trkpt lat="43.15747" lon="0.0461">
        <ele>394</ele>
        <time>2017-01-02T07:36:24Z</time>
      </trkpt>
      <trkpt lat="43.1577" lon="0.0456">
        <ele>393</ele>
        <time>2017-01-02T07:38:24Z</time>
      </trkpt>
      <trkpt lat="43.15779" lon="0.04516">
        <ele>390</ele>
        <time>2017-01-02T07:40:24Z</time>
      </trkpt>
      <trkpt lat="43.15785" lon="0.04486">
        <ele>388</ele>
        <time>2017-01-02T07:42:24Z</time>
      </trkpt>
      <trkpt lat="43.15811" lon="0.0445">
        <ele>386</ele>
        <time>2017-01-02T07:44:24Z</time>
      </trkpt>
      <trkpt lat="43.15845" lon="0.04404">
        <ele>383</ele>
        <time>2017-01-02T07:46:24Z</time>
      </trkpt>
      <trkpt lat="43.15886" lon="0.04358">
        <ele>379</ele>
        <time>2017-01-02T07:48:24Z</time>
      </trkpt>
      <trkpt lat="43.15921" lon="0.04305">
        <ele>374</ele>
        <time>2017-01-02T07:50:24Z</time>
      </trkpt>
      <trkpt lat="43.1595" lon="0.04228">
        <ele>367</ele>
        <time>2017-01-02T07:52:24Z</time>
      </trkpt>
      <trkpt lat="43.15967" lon="0.04215">
        <ele>367</ele>
        <time>2017-01-02T07:54:24Z</time>
      </trkpt>
      <trkpt lat="43.15985" lon="0.0421">
        <ele>367</ele>
        <time>2017-01-02T07:56:24Z</time>
      </trkpt>
      <trkpt lat="43.15993" lon="0.04205">
        <ele>367</ele>
        <time>2017-01-02T07:58:24Z</time>
      </trkpt>
      <trkpt lat="43.15995" lon="0.04189">
        <ele>365</ele>
        <time>2017-01-02T08:00:24Z</time>
      </trkpt>
      <trkpt lat="43.15985" lon="0.04175">
        <ele>363</ele>
        <time>2017-01-02T08:02:24Z</time>
      </trkpt>
      <trkpt lat="43.15971" lon="0.04167">
        <ele>362</ele>
        <time>2017-01-02T08:04:24Z</time>
      </trkpt>
      <trkpt lat="43.15965" lon="0.04156">
        <ele>361</ele>
        <time>2017-01-02T08:06:24Z</time>
      </trkpt>
      <trkpt lat="43.15955" lon="0.04111">
        <ele>359</ele>
        <time>2017-01-02T08:08:24Z</time>
      </trkpt>
      <trkpt lat="43.15944" lon="0.04069">
        <ele>358</ele>
        <time>2017-01-02T08:10:24Z</time>
      </trkpt>
      <trkpt lat="43.15935" lon="0.04009">
        <ele>359</ele>
        <time>2017-01-02T08:12:24Z</time>
      </trkpt>
      <trkpt lat="43.15948" lon="0.03988">
        <ele>359</ele>
        <time>2017-01-02T08:14:24Z</time>
      </trkpt>
      <trkpt lat="43.15979" lon="0.03955">
        <ele>359</ele>
        <time>2017-01-02T08:16:24Z</time>
      </trkpt>
      <trkpt lat="43.16001" lon="0.03933">
        <ele>359</ele>
        <time>2017-01-02T08:18:24Z</time>
      </trkpt>
      <trkpt lat="43.16029" lon="0.03899">
        <ele>359</ele>
        <time>2017-01-02T08:20:24Z</time>
      </trkpt>
      <trkpt lat="43.16052" lon="0.03871">
        <ele>359</ele>
        <time>2017-01-02T08:22:24Z</time>
      </trkpt>
      <trkpt lat="43.16085" lon="0.03835">
        <ele>359</ele>
        <time>2017-01-02T08:24:24Z</time>
      </trkpt>
      <trkpt lat="43.16104" lon="0.03811">
        <ele>358</ele>
        <time>2017-01-02T08:26:24Z</time>
      </trkpt>
      <trkpt lat="43.16126" lon="0.03783">
        <ele>358</ele>
        <time>2017-01-02T08:28:24Z</time>
      </trkpt>
      <trkpt lat="43.16145" lon="0.0376">
        <ele>358</ele>
        <time>2017-01-02T08:30:24Z</time>
      </trkpt>
      <trkpt lat="43.16168" lon="0.03741">
        <ele>358</ele>
        <time>2017-01-02T08:32:24Z</time>
      </trkpt>
      <trkpt lat="43.16193" lon="0.03726">
        <ele>357</ele>
        <time>2017-01-02T08:34:24Z</time>
      </trkpt>
      <trkpt lat="43.16216" lon="0.03719">
        <ele>357</ele>
        <time>2017-01-02T08:36:24Z</time>
      </trkpt>
      <trkpt lat="43.16234" lon="0.03704">
        <ele>356</ele>
        <time>2017-01-02T08:38:24Z</time>
      </trkpt>
      <trkpt lat="43.16256" lon="0.03698">
        <ele>355</ele>
        <time>2017-01-02T08:40:24Z</time>
      </trkpt>
      <trkpt lat="43.16276" lon="0.03705">
        <ele>354</ele>
        <time>2017-01-02T08:42:24Z</time>
      </trkpt>
      <trkpt lat="43.16294" lon="0.03714">
        <ele>352</ele>
        <time>2017-01-02T08:44:24Z</time>
      </trkpt>
      <trkpt lat="43.1631" lon="0.03719">
        <ele>351</ele>
        <time>2017-01-02T08:46:24Z</time>
      </trkpt>
      <trkpt lat="43.16317" lon="0.03707">
        <ele>351</ele>
        <time>2017-01-02T08:48:24Z</time>
      </trkpt>
      <trkpt lat="43.16308" lon="0.03688">
        <ele>351</ele>
        <time>2017-01-02T08:50:24Z</time>
      </trkpt>
      <trkpt lat="43.16295" lon="0.03676">
        <ele>352</ele>
        <time>2017-01-02T08:52:24Z</time>
      </trkpt>
      <trkpt lat="43.16289" lon="0.03663">
        <ele>352</ele>
        <time>2017-01-02T08:54:24Z</time>
      </trkpt>
      <trkpt lat="43.16294" lon="0.03645">
        <ele>351</ele>
        <time>2017-01-02T08:56:24Z</time>
      </trkpt>
      <trkpt lat="43.16305" lon="0.03626">
        <ele>349</ele>
        <time>2017-01-02T08:58:24Z</time>
      </trkpt>
      <trkpt lat="43.16317" lon="0.03616">
        <ele>348</ele>
        <time>2017-01-02T09:00:24Z</time>
      </trkpt>
      <trkpt lat="43.16328" lon="0.03606">
        <ele>348</ele>
        <time>2017-01-02T09:02:24Z</time>
      </trkpt>
      <trkpt lat="43.16342" lon="0.03594">
        <ele>347</ele>
        <time>2017-01-02T09:04:24Z</time>
      </trkpt>
      <trkpt lat="43.16364" lon="0.03593">
        <ele>347</ele>
        <time>2017-01-02T09:06:24Z</time>
      </trkpt>
      <trkpt lat="43.16385" lon="0.03595">
        <ele>347</ele>
        <time>2017-01-02T09:08:24Z</time>
      </trkpt>
      <trkpt lat="43.16413" lon="0.03597">
        <ele>346</ele>
        <time>2017-01-02T09:10:24Z</time>
      </trkpt>
      <trkpt lat="43.16431" lon="0.03597">
        <ele>346</ele>
        <time>2017-01-02T09:12:24Z</time>
      </trkpt>
      <trkpt lat="43.16448" lon="0.03591">
        <ele>346</ele>
        <time>2017-01-02T09:14:24Z</time>
      </trkpt>
      <trkpt lat="43.16467" lon="0.03585">
        <ele>346</ele>
        <time>2017-01-02T09:16:24Z</time>
      </trkpt>
      <trkpt lat="43.16485" lon="0.03581">
        <ele>346</ele>
        <time>2017-01-02T09:18:24Z</time>
      </trkpt>
      <trkpt lat="43.16501" lon="0.03577">
        <ele>346</ele>
        <time>2017-01-02T09:20:24Z</time>
      </trkpt>
      <trkpt lat="43.16515" lon="0.03564">
        <ele>347</ele>
        <time>2017-01-02T09:22:24Z</time>
      </trkpt>
      <trkpt lat="43.16529" lon="0.03554">
        <ele>348</ele>
        <time>2017-01-02T09:24:24Z</time>
      </trkpt>
      <trkpt lat="43.16544" lon="0.03563">
        <ele>349</ele>
        <time>2017-01-02T09:26:24Z</time>
      </trkpt>
      <trkpt lat="43.16555" lon="0.03573">
        <ele>350</ele>
        <time>2017-01-02T09:28:24Z</time>
      </trkpt>
      <trkpt lat="43.16573" lon="0.03568">
        <ele>351</ele>
        <time>2017-01-02T09:30:24Z</time>
      </trkpt>
      <trkpt lat="43.16586" lon="0.03546">
        <ele>350</ele>
        <time>2017-01-02T09:32:24Z</time>
      </trkpt>
      <trkpt lat="43.16597" lon="0.03524">
        <ele>351</ele>
        <time>2017-01-02T09:34:24Z</time>
      </trkpt>
      <trkpt lat="43.16615" lon="0.03506">
        <ele>352</ele>
        <time>2017-01-02T09:36:24Z</time>
      </trkpt>
      <trkpt lat="43.16633" lon="0.03487">
        <ele>354</ele>
        <time>2017-01-02T09:38:24Z</time>
      </trkpt>
      <trkpt lat="43.16657" lon="0.03479">
        <ele>357</ele>
        <time>2017-01-02T09:40:24Z</time>
      </trkpt>
      <trkpt lat="43.16681" lon="0.03471">
        <ele>359</ele>
        <time>2017-01-02T09:42:24Z</time>
      </trkpt>
      <trkpt lat="43.16702" lon="0.03464">
        <ele>361</ele>
        <time>2017-01-02T09:44:24Z</time>
      </trkpt>
      <trkpt lat="43.16719" lon="0.03455">
        <ele>362</ele>
        <time>2017-01-02T09:46:24Z</time>
      </trkpt>
      <trkpt lat="43.16733" lon="0.0345">
        <ele>363</ele>
        <time>2017-01-02T09:48:24Z</time>
      </trkpt>
      <trkpt lat="43.16753" lon="0.03452">
        <ele>365</ele>
        <time>2017-01-02T09:50:24Z</time>
      </trkpt>
      <trkpt lat="43.16774" lon="0.03454">
        <ele>366</ele>
        <time>2017-01-02T09:52:24Z</time>
      </trkpt>
      <trkpt lat="43.16798" lon="0.03452">
        <ele>367</ele>
        <time>2017-01-02T09:54:24Z</time>
      </trkpt>
      <trkpt lat="43.16819" lon="0.03439">
        <ele>365</ele>
        <time>2017-01-02T09:56:24Z</time>
      </trkpt>
      <trkpt lat="43.16839" lon="0.03425">
        <ele>363</ele>
        <time>2017-01-02T09:58:24Z</time>
      </trkpt>
      <trkpt lat="43.16859" lon="0.03409">
        <ele>361</ele>
        <time>2017-01-02T10:00:24Z</time>
      </trkpt>
      <trkpt lat="43.16901" lon="0.03417">
        <ele>363</ele>
        <time>2017-01-02T10:02:24Z</time>
      </trkpt>
      <trkpt lat="43.16936" lon="0.03417">
        <ele>365</ele>
        <time>2017-01-02T10:04:24Z</time>
      </trkpt>
      <trkpt lat="43.16962" lon="0.03406">
        <ele>368</ele>
        <time>2017-01-02T10:06:24Z</time>
      </trkpt>
      <trkpt lat="43.17005" lon="0.03399">
        <ele>374</ele>
        <time>2017-01-02T10:08:24Z</time>
      </trkpt>
      <trkpt lat="43.17077" lon="0.03379">
        <ele>383</ele>
        <time>2017-01-02T10:10:24Z</time>
      </trkpt>
      <trkpt lat="43.17091" lon="0.03369">
        <ele>384</ele>
        <time>2017-01-02T10:12:24Z</time>
      </trkpt>
      <trkpt lat="43.17138" lon="0.0332">
        <ele>386</ele>
        <time>2017-01-02T10:14:24Z</time>
      </trkpt>
      <trkpt lat="43.17166" lon="0.03306">
        <ele>390</ele>
        <time>2017-01-02T10:16:24Z</time>
      </trkpt>
      <trkpt lat="43.17193" lon="0.03301">
        <ele>392</ele>
        <time>2017-01-02T10:18:24Z</time>
      </trkpt>
      <trkpt lat="43.17251" lon="0.03274">
        <ele>396</ele>
        <time>2017-01-02T10:20:24Z</time>
      </trkpt>
      <trkpt lat="43.1727" lon="0.03269">
        <ele>398</ele>
        <time>2017-01-02T10:22:24Z</time>
      </trkpt>
      <trkpt lat="43.17305" lon="0.03242">
        <ele>401</ele>
        <time>2017-01-02T10:24:24Z</time>
      </trkpt>
      <trkpt lat="43.17321" lon="0.03244">
        <ele>403</ele>
        <time>2017-01-02T10:26:24Z</time>
      </trkpt>
      <trkpt lat="43.17339" lon="0.03238">
        <ele>405</ele>
        <time>2017-01-02T10:28:24Z</time>
      </trkpt>
      <trkpt lat="43.17397" lon="0.03221">
        <ele>412</ele>
        <time>2017-01-02T10:30:24Z</time>
      </trkpt>
      <trkpt lat="43.17453" lon="0.03203">
        <ele>415</ele>
        <time>2017-01-02T10:32:24Z</time>
      </trkpt>
      <trkpt lat="43.17512" lon="0.03193">
        <ele>418</ele>
        <time>2017-01-02T10:34:24Z</time>
      </trkpt>
      <trkpt lat="43.17522" lon="0.03186">
        <ele>418</ele>
        <time>2017-01-02T10:36:24Z</time>
      </trkpt>
      <trkpt lat="43.1754" lon="0.0319">
        <ele>419</ele>
        <time>2017-01-02T10:38:24Z</time>
      </trkpt>
      <trkpt lat="43.17568" lon="0.03222">
        <ele>424</ele>
        <time>2017-01-02T10:40:24Z</time>
      </trkpt>
      <trkpt lat="43.17549" lon="0.03296">
        <ele>430</ele>
        <time>2017-01-02T10:42:24Z</time>
      </trkpt>
      <trkpt lat="43.17536" lon="0.03347">
        <ele>433</ele>
        <time>2017-01-02T10:44:24Z</time>
      </trkpt>
      <trkpt lat="43.17538" lon="0.03377">
        <ele>434</ele>
        <time>2017-01-02T10:46:24Z</time>
      </trkpt>
      <trkpt lat="43.17535" lon="0.03426">
        <ele>435</ele>
        <time>2017-01-02T10:48:24Z</time>
      </trkpt>
      <trkpt lat="43.17552" lon="0.03508">
        <ele>429</ele>
        <time>2017-01-02T10:50:24Z</time>
      </trkpt>
      <trkpt lat="43.17541" lon="0.03535">
        <ele>426</ele>
        <time>2017-01-02T10:52:24Z</time>
      </trkpt>
      <trkpt lat="43.17557" lon="0.03573">
        <ele>421</ele>
        <time>2017-01-02T10:54:24Z</time>
      </trkpt>
      <trkpt lat="43.17581" lon="0.03604">
        <ele>417</ele>
        <time>2017-01-02T10:56:24Z</time>
      </trkpt>
      <trkpt lat="43.17553" lon="0.03643">
        <ele>412</ele>
        <time>2017-01-02T10:58:24Z</time>
      </trkpt>
      <trkpt lat="43.17539" lon="0.03676">
        <ele>408</ele>
        <time>2017-01-02T11:00:24Z</time>
      </trkpt>
      <trkpt lat="43.17559" lon="0.03701">
        <ele>407</ele>
        <time>2017-01-02T11:02:24Z</time>
      </trkpt>
      <trkpt lat="43.17566" lon="0.03729">
        <ele>405</ele>
        <time>2017-01-02T11:04:24Z</time>
      </trkpt>
      <trkpt lat="43.17588" lon="0.03762">
        <ele>403</ele>
        <time>2017-01-02T11:06:24Z</time>
      </trkpt>
      <trkpt lat="43.17611" lon="0.03776">
        <ele>403</ele>
        <time>2017-01-02T11:08:24Z</time>
      </trkpt>
      <trkpt lat="43.17629" lon="0.03776">
        <ele>402</ele>
        <time>2017-01-02T11:10:24Z</time>
      </trkpt>
      <trkpt lat="43.17661" lon="0.03789">
        <ele>401</ele>
        <time>2017-01-02T11:12:24Z</time>
      </trkpt>
      <trkpt lat="43.17698" lon="0.03792">
        <ele>398</ele>
        <time>2017-01-02T11:14:24Z</time>
      </trkpt>
      <trkpt lat="43.17725" lon="0.03777">
        <ele>395</ele>
        <time>2017-01-02T11:16:24Z</time>
      </trkpt>
      <trkpt lat="43.17742" lon="0.03733">
        <ele>394</ele>
        <time>2017-01-02T11:18:24Z</time>
      </trkpt>
      <trkpt lat="43.17751" lon="0.03676">
        <ele>395</ele>
        <time>2017-01-02T11:20:24Z</time>
      </trkpt>
      <trkpt lat="43.17773" lon="0.03661">
        <ele>395</ele>
        <time>2017-01-02T11:22:24Z</time>
      </trkpt>
      <trkpt lat="43.17802" lon="0.03642">
        <ele>394</ele>
        <time>2017-01-02T11:24:24Z</time>
      </trkpt>
      <trkpt lat="43.1782" lon="0.03602">
        <ele>395</ele>
        <time>2017-01-02T11:26:24Z</time>
      </trkpt>
      <trkpt lat="43.17817" lon="0.03558">
        <ele>399</ele>
        <time>2017-01-02T11:28:24Z</time>
      </trkpt>
      <trkpt lat="43.17856" lon="0.03515">
        <ele>401</ele>
        <time>2017-01-02T11:30:24Z</time>
      </trkpt>
      <trkpt lat="43.17902" lon="0.03479">
        <ele>399</ele>
        <time>2017-01-02T11:32:24Z</time>
      </trkpt>
      <trkpt lat="43.17957" lon="0.03438">
        <ele>402</ele>
        <time>2017-01-02T11:34:24Z</time>
      </trkpt>
      <trkpt lat="43.17997" lon="0.03393">
        <ele>407</ele>
        <time>2017-01-02T11:36:24Z</time>
      </trkpt>
      <trkpt lat="43.18027" lon="0.03342">
        <ele>414</ele>
        <time>2017-01-02T11:38:24Z</time>
      </trkpt>
      <trkpt lat="43.18044" lon="0.03319">
        <ele>416</ele>
        <time>2017-01-02T11:40:24Z</time>
      </trkpt>
      <trkpt lat="43.18079" lon="0.03314">
        <ele>414</ele>
        <time>2017-01-02T11:42:24Z</time>
      </trkpt>
      <trkpt lat="43.18062" lon="0.03304">
        <ele>416</ele>
        <time>2017-01-02T11:44:24Z</time>
      </trkpt>
      <trkpt lat="43.18019" lon="0.03304">
        <ele>419</ele>
        <time>2017-01-02T11:46:24Z</time>
      </trkpt>
      <trkpt lat="43.17963" lon="0.03314">
        <ele>420</ele>
        <time>2017-01-02T11:48:24Z</time>
      </trkpt>
      <trkpt lat="43.17906" lon="0.03309">
        <ele>420</ele>
        <time>2017-01-02T11:50:24Z</time>
      </trkpt>
      <trkpt lat="43.17854" lon="0.03305">
        <ele>417</ele>
        <time>2017-01-02T11:52:24Z</time>
      </trkpt>
      <trkpt lat="43.178" lon="0.03307">
        <ele>418</ele>
        <time>2017-01-02T11:54:24Z</time>
      </trkpt>
      <trkpt lat="43.17732" lon="0.03296">
        <ele>423</ele>
        <time>2017-01-02T11:56:24Z</time>
      </trkpt>
      <trkpt lat="43.17644" lon="0.03251">
        <ele>429</ele>
        <time>2017-01-02T11:58:24Z</time>
      </trkpt>
      <trkpt lat="43.1764" lon="0.03223">
        <ele>427</ele>
        <time>2017-01-02T12:00:24Z</time>
      </trkpt>
      <trkpt lat="43.17635" lon="0.03203">
        <ele>426</ele>
        <time>2017-01-02T12:02:24Z</time>
      </trkpt>
      <trkpt lat="43.17626" lon="0.03182">
        <ele>424</ele>
        <time>2017-01-02T12:04:24Z</time>
      </trkpt>
      <trkpt lat="43.17613" lon="0.03151">
        <ele>420</ele>
        <time>2017-01-02T12:06:24Z</time>
      </trkpt>
      <trkpt lat="43.17611" lon="0.03124">
        <ele>416</ele>
        <time>2017-01-02T12:08:24Z</time>
      </trkpt>
      <trkpt lat="43.17617" lon="0.03095">
        <ele>412</ele>
        <time>2017-01-02T12:10:24Z</time>
      </trkpt>
      <trkpt lat="43.17608" lon="0.03059">
        <ele>406</ele>
        <time>2017-01-02T12:12:24Z</time>
      </trkpt>
      <trkpt lat="43.17611" lon="0.03021">
        <ele>399</ele>
        <time>2017-01-02T12:14:24Z</time>
      </trkpt>
      <trkpt lat="43.17611" lon="0.02992">
        <ele>393</ele>
        <time>2017-01-02T12:16:24Z</time>
      </trkpt>
      <trkpt lat="43.17604" lon="0.0297">
        <ele>387</ele>
        <time>2017-01-02T12:18:24Z</time>
      </trkpt>
      <trkpt lat="43.17577" lon="0.0296">
        <ele>381</ele>
        <time>2017-01-02T12:20:24Z</time>
      </trkpt>
      <trkpt lat="43.1755" lon="0.02968">
        <ele>381</ele>
        <time>2017-01-02T12:22:24Z</time>
      </trkpt>
      <trkpt lat="43.17524" lon="0.02971">
        <ele>380</ele>
        <time>2017-01-02T12:24:24Z</time>
      </trkpt>
      <trkpt lat="43.17502" lon="0.02965">
        <ele>377</ele>
        <time>2017-01-02T12:26:24Z</time>
      </trkpt>
      <trkpt lat="43.1748" lon="0.02967">
        <ele>374</ele>
        <time>2017-01-02T12:28:24Z</time>
      </trkpt>
      <trkpt lat="43.17463" lon="0.02982">
        <ele>374</ele>
        <time>2017-01-02T12:30:24Z</time>
      </trkpt>
      <trkpt lat="43.17448" lon="0.02996">
        <ele>375</ele>
        <time>2017-01-02T12:32:24Z</time>
      </trkpt>
      <trkpt lat="43.17423" lon="0.0299">
        <ele>369</ele>
        <time>2017-01-02T12:34:24Z</time>
      </trkpt>
      <trkpt lat="43.17416" lon="0.02961">
        <ele>362</ele>
        <time>2017-01-02T12:36:24Z</time>
      </trkpt>
      <trkpt lat="43.17402" lon="0.02941">
        <ele>358</ele>
        <time>2017-01-02T12:38:24Z</time>
      </trkpt>
      <trkpt lat="43.17381" lon="0.02923">
        <ele>353</ele>
        <time>2017-01-02T12:40:24Z</time>
      </trkpt>
      <trkpt lat="43.17369" lon="0.02908">
        <ele>351</ele>
        <time>2017-01-02T12:42:24Z</time>
      </trkpt>
      <trkpt lat="43.17379" lon="0.02866">
        <ele>347</ele>
        <time>2017-01-02T12:44:24Z</time>
      </trkpt>
      <trkpt lat="43.17389" lon="0.02842">
        <ele>344</ele>
        <time>2017-01-02T12:46:24Z</time>
      </trkpt>
      <trkpt lat="43.17407" lon="0.02817">
        <ele>342</ele>
        <time>2017-01-02T12:48:24Z</time>
      </trkpt>
      <trkpt lat="43.17433" lon="0.02805">
        <ele>342</ele>
        <time>2017-01-02T12:50:24Z</time>
      </trkpt>
      <trkpt lat="43.17457" lon="0.02785">
        <ele>341</ele>
        <time>2017-01-02T12:52:24Z</time>
      </trkpt>
      <trkpt lat="43.17466" lon="0.02736">
        <ele>340</ele>
        <time>2017-01-02T12:54:24Z</time>
      </trkpt>
      <trkpt lat="43.17476" lon="0.02687">
        <ele>339</ele>
        <time>2017-01-02T12:56:24Z</time>
      </trkpt>
      <trkpt lat="43.17484" lon="0.02638">
        <ele>339</ele>
        <time>2017-01-02T12:58:24Z</time>
      </trkpt>
      <trkpt lat="43.17495" lon="0.02592">
        <ele>338</ele>
        <time>2017-01-02T13:00:24Z</time>
      </trkpt>
      <trkpt lat="43.17511" lon="0.02547">
        <ele>337</ele>
        <time>2017-01-02T13:02:24Z</time>
      </trkpt>
      <trkpt lat="43.17529" lon="0.02519">
        <ele>337</ele>
        <time>2017-01-02T13:04:24Z</time>
      </trkpt>
      <trkpt lat="43.17549" lon="0.025">
        <ele>337</ele>
        <time>2017-01-02T13:06:24Z</time>
      </trkpt>
      <trkpt lat="43.17558" lon="0.02465">
        <ele>336</ele>
        <time>2017-01-02T13:08:24Z</time>
      </trkpt>
      <trkpt lat="43.17582" lon="0.02423">
        <ele>336</ele>
        <time>2017-01-02T13:10:24Z</time>
      </trkpt>
      <trkpt lat="43.17603" lon="0.02404">
        <ele>336</ele>
        <time>2017-01-02T13:12:24Z</time>
      </trkpt>
      <trkpt lat="43.17617" lon="0.02456">
        <ele>337</ele>
        <time>2017-01-02T13:14:24Z</time>
      </trkpt>
      <trkpt lat="43.17644" lon="0.02468">
        <ele>338</ele>
        <time>2017-01-02T13:16:24Z</time>
      </trkpt>
      <trkpt lat="43.17667" lon="0.0247">
        <ele>338</ele>
        <time>2017-01-02T13:18:24Z</time>
      </trkpt>
      <trkpt lat="43.17806" lon="0.02539">
        <ele>337</ele>
        <time>2017-01-02T13:20:24Z</time>
      </trkpt>
      <trkpt lat="43.17808" lon="0.02616">
        <ele>340</ele>
        <time>2017-01-02T13:22:24Z</time>
      </trkpt>
      <trkpt lat="43.17788" lon="0.02684">
        <ele>345</ele>
        <time>2017-01-02T13:24:24Z</time>
      </trkpt>
      <trkpt lat="43.17812" lon="0.02742">
        <ele>357</ele>
        <time>2017-01-02T13:26:24Z</time>
      </trkpt>
      <trkpt lat="43.178" lon="0.02778">
        <ele>362</ele>
        <time>2017-01-02T13:28:24Z</time>
      </trkpt>
      <trkpt lat="43.17669" lon="0.02904">
        <ele>376</ele>
        <time>2017-01-02T13:30:24Z</time>
      </trkpt>
      <trkpt lat="43.17745" lon="0.02865">
        <ele>373</ele>
        <time>2017-01-02T13:32:24Z</time>
      </trkpt>
      <trkpt lat="43.17764" lon="0.02891">
        <ele>381</ele>
        <time>2017-01-02T13:34:24Z</time>
      </trkpt>
      <trkpt lat="43.17769" lon="0.0293">
        <ele>388</ele>
        <time>2017-01-02T13:36:24Z</time>
      </trkpt>
      <trkpt lat="43.17757" lon="0.02932">
        <ele>388</ele>
        <time>2017-01-02T13:38:24Z</time>
      </trkpt>
      <trkpt lat="43.1775" lon="0.02904">
        <ele>383</ele>
        <time>2017-01-02T13:40:24Z</time>
      </trkpt>
      <trkpt lat="43.17732" lon="0.02896">
        <ele>379</ele>
        <time>2017-01-02T13:42:24Z</time>
      </trkpt>
      <trkpt lat="43.17671" lon="0.02958">
        <ele>390</ele>
        <time>2017-01-02T13:44:24Z</time>
      </trkpt>
      <trkpt lat="43.17714" lon="0.0294">
        <ele>387</ele>
        <time>2017-01-02T13:46:24Z</time>
      </trkpt>
      <trkpt lat="43.17734" lon="0.02961">
        <ele>390</ele>
        <time>2017-01-02T13:48:24Z</time>
      </trkpt>
      <trkpt lat="43.1774" lon="0.03021">
        <ele>397</ele>
        <time>2017-01-02T13:50:24Z</time>
      </trkpt>
      <trkpt lat="43.17735" lon="0.03085">
        <ele>404</ele>
        <time>2017-01-02T13:52:24Z</time>
      </trkpt>
      <trkpt lat="43.1773" lon="0.03142">
        <ele>412</ele>
        <time>2017-01-02T13:54:24Z</time>
      </trkpt>
      <trkpt lat="43.17757" lon="0.03177">
        <ele>412</ele>
        <time>2017-01-02T13:56:24Z</time>
      </trkpt>
      <trkpt lat="43.17801" lon="0.03173">
        <ele>411</ele>
        <time>2017-01-02T13:58:24Z</time>
      </trkpt>
      <trkpt lat="43.17835" lon="0.0316">
        <ele>410</ele>
        <time>2017-01-02T14:00:24Z</time>
      </trkpt>
      <trkpt lat="43.1786" lon="0.03133">
        <ele>410</ele>
        <time>2017-01-02T14:02:24Z</time>
      </trkpt>
      <trkpt lat="43.17878" lon="0.0307">
        <ele>408</ele>
        <time>2017-01-02T14:04:24Z</time>
      </trkpt>
      <trkpt lat="43.17885" lon="0.03044">
        <ele>407</ele>
        <time>2017-01-02T14:06:24Z</time>
      </trkpt>
      <trkpt lat="43.17906" lon="0.03028">
        <ele>410</ele>
        <time>2017-01-02T14:08:24Z</time>
      </trkpt>
      <trkpt lat="43.18009" lon="0.0299">
        <ele>412</ele>
        <time>2017-01-02T14:10:24Z</time>
      </trkpt>
      <trkpt lat="43.18044" lon="0.02934">
        <ele>414</ele>
        <time>2017-01-02T14:12:24Z</time>
      </trkpt>
      <trkpt lat="43.1806" lon="0.02883">
        <ele>415</ele>
        <time>2017-01-02T14:14:24Z</time>
      </trkpt>
      <trkpt lat="43.18061" lon="0.02843">
        <ele>414</ele>
        <time>2017-01-02T14:16:24Z</time>
      </trkpt>
      <trkpt lat="43.18068" lon="0.02786">
        <ele>409</ele>
        <time>2017-01-02T14:18:24Z</time>
      </trkpt>
      <trkpt lat="43.18086" lon="0.0278">
        <ele>413</ele>
        <time>2017-01-02T14:20:24Z</time>
      </trkpt>
      <trkpt lat="43.18109" lon="0.02837">
        <ele>422</ele>
        <time>2017-01-02T14:22:24Z</time>
      </trkpt>
      <trkpt lat="43.18113" lon="0.02888">
        <ele>425</ele>
        <time>2017-01-02T14:24:24Z</time>
      </trkpt>
      <trkpt lat="43.18109" lon="0.02957">
        <ele>427</ele>
        <time>2017-01-02T14:26:24Z</time>
      </trkpt>
      <trkpt lat="43.18105" lon="0.03036">
        <ele>428</ele>
        <time>2017-01-02T14:28:24Z</time>
      </trkpt>
      <trkpt lat="43.18118" lon="0.03075">
        <ele>428</ele>
        <time>2017-01-02T14:30:24Z</time>
      </trkpt>
      <trkpt lat="43.18144" lon="0.03048">
        <ele>431</ele>
        <time>2017-01-02T14:32:24Z</time>
      </trkpt>
      <trkpt lat="43.18172" lon="0.03006">
        <ele>436</ele>
        <time>2017-01-02T14:34:24Z</time>
      </trkpt>
      <trkpt lat="43.18209" lon="0.02953">
        <ele>437</ele>
        <time>2017-01-02T14:36:24Z</time>
      </trkpt>
      <trkpt lat="43.18242" lon="0.0291">
        <ele>437</ele>
        <time>2017-01-02T14:38:24Z</time>
      </trkpt>
      <trkpt lat="43.18287" lon="0.02956">
        <ele>437</ele>
        <time>2017-01-02T14:40:24Z</time>
      </trkpt>
      <trkpt lat="43.18329" lon="0.03023">
        <ele>430</ele>
        <time>2017-01-02T14:42:24Z</time>
      </trkpt>
      <trkpt lat="43.18325" lon="0.03064">
        <ele>423</ele>
        <time>2017-01-02T14:44:24Z</time>
      </trkpt>
      <trkpt lat="43.18342" lon="0.03114">
        <ele>415</ele>
        <time>2017-01-02T14:46:24Z</time>
      </trkpt>
      <trkpt lat="43.18367" lon="0.03152">
        <ele>409</ele>
        <time>2017-01-02T14:48:24Z</time>
      </trkpt>
      <trkpt lat="43.18363" lon="0.03213">
        <ele>401</ele>
        <time>2017-01-02T14:50:24Z</time>
      </trkpt>
      <trkpt lat="43.18353" lon="0.03271">
        <ele>395</ele>
        <time>2017-01-02T14:52:24Z</time>
      </trkpt>
      <trkpt lat="43.18382" lon="0.03317">
        <ele>391</ele>
        <time>2017-01-02T14:54:24Z</time>
      </trkpt>
      <trkpt lat="43.18435" lon="0.03354">
        <ele>387</ele>
        <time>2017-01-02T14:56:24Z</time>
      </trkpt>
      <trkpt lat="43.18492" lon="0.03356">
        <ele>384</ele>
        <time>2017-01-02T14:58:24Z</time>
      </trkpt>
      <trkpt lat="43.18557" lon="0.03375">
        <ele>383</ele>
        <time>2017-01-02T15:00:24Z</time>
      </trkpt>
      <trkpt lat="43.18639" lon="0.03425">
        <ele>377</ele>
        <time>2017-01-02T15:02:24Z</time>
      </trkpt>
      <trkpt lat="43.18716" lon="0.03508">
        <ele>369</ele>
        <time>2017-01-02T15:04:24Z</time>
      </trkpt>
      <trkpt lat="43.18783" lon="0.03485">
        <ele>366</ele>
        <time>2017-01-02T15:06:24Z</time>
      </trkpt>
      <trkpt lat="43.18752" lon="0.03412">
        <ele>375</ele>
        <time>2017-01-02T15:08:24Z</time>
      </trkpt>
      <trkpt lat="43.18737" lon="0.03332">
        <ele>382</ele>
        <time>2017-01-02T15:10:24Z</time>
      </trkpt>
      <trkpt lat="43.18797" lon="0.03295">
        <ele>376</ele>
        <time>2017-01-02T15:12:24Z</time>
      </trkpt>
      <trkpt lat="43.18818" lon="0.0334">
        <ele>373</ele>
        <time>2017-01-02T15:14:24Z</time>
      </trkpt>
      <trkpt lat="43.18835" lon="0.0336">
        <ele>370</ele>
        <time>2017-01-02T15:16:24Z</time>
      </trkpt>
      <trkpt lat="43.18829" lon="0.03398">
        <ele>369</ele>
        <time>2017-01-02T15:18:24Z</time>
      </trkpt>
      <trkpt lat="43.18857" lon="0.03436">
        <ele>363</ele>
        <time>2017-01-02T15:20:24Z</time>
      </trkpt>
      <trkpt lat="43.18874" lon="0.03473">
        <ele>358</ele>
        <time>2017-01-02T15:22:24Z</time>
      </trkpt>
      <trkpt lat="43.18877" lon="0.03538">
        <ele>354</ele>
        <time>2017-01-02T15:24:24Z</time>
      </trkpt>
      <trkpt lat="43.18856" lon="0.03563">
        <ele>355</ele>
        <time>2017-01-02T15:26:24Z</time>
      </trkpt>
      <trkpt lat="43.188" lon="0.03597">
        <ele>358</ele>
        <time>2017-01-02T15:28:24Z</time>
      </trkpt>
      <trkpt lat="43.18776" lon="0.03604">
        <ele>359</ele>
        <time>2017-01-02T15:30:24Z</time>
      </trkpt>
      <trkpt lat="43.18773" lon="0.03646">
        <ele>359</ele>
        <time>2017-01-02T15:32:24Z</time>
      </trkpt>
      <trkpt lat="43.18777" lon="0.03766">
        <ele>354</ele>
        <time>2017-01-02T15:34:24Z</time>
      </trkpt>
      <trkpt lat="43.18747" lon="0.03847">
        <ele>353</ele>
        <time>2017-01-02T15:36:24Z</time>
      </trkpt>
      <trkpt lat="43.18686" lon="0.03903">
        <ele>360</ele>
        <time>2017-01-02T15:38:24Z</time>
      </trkpt>
      <trkpt lat="43.18678" lon="0.04143">
        <ele>358</ele>
        <time>2017-01-02T15:40:24Z</time>
      </trkpt>
      <trkpt lat="43.18511" lon="0.03976">
        <ele>366</ele>
        <time>2017-01-02T15:42:24Z</time>
      </trkpt>
      <trkpt lat="43.18402" lon="0.04155">
        <ele>363</ele>
        <time>2017-01-02T15:44:24Z</time>
      </trkpt>
      <trkpt lat="43.18543" lon="0.04288">
        <ele>358</ele>
        <time>2017-01-02T15:46:24Z</time>
      </trkpt>
      <trkpt lat="43.18686" lon="0.04463">
        <ele>349</ele>
        <time>2017-01-02T15:48:24Z</time>
      </trkpt>
      <trkpt lat="43.1859" lon="0.04596">
        <ele>346</ele>
        <time>2017-01-02T15:50:24Z</time>
      </trkpt>
      <trkpt lat="43.18617" lon="0.04847">
        <ele>351</ele>
        <time>2017-01-02T15:52:24Z</time>
      </trkpt>
      <trkpt lat="43.18781" lon="0.04772">
        <ele>347</ele>
        <time>2017-01-02T15:54:24Z</time>
      </trkpt>
      <trkpt lat="43.18823" lon="0.04813">
        <ele>351</ele>
        <time>2017-01-02T15:56:24Z</time>
      </trkpt>
      <trkpt lat="43.18878" lon="0.04791">
        <ele>347</ele>
        <time>2017-01-02T15:58:24Z</time>
      </trkpt>
      <trkpt lat="43.18975" lon="0.04922">
        <ele>345</ele>
        <time>2017-01-02T16:00:24Z</time>
      </trkpt>
      <trkpt lat="43.1901" lon="0.0506">
        <ele>346</ele>
        <time>2017-01-02T16:02:24Z</time>
      </trkpt>
      <trkpt lat="43.19052" lon="0.0512">
        <ele>345</ele>
        <time>2017-01-02T16:04:24Z</time>
      </trkpt>
      <trkpt lat="43.19061" lon="0.05253">
        <ele>353</ele>
        <time>2017-01-02T16:06:24Z</time>
      </trkpt>
      <trkpt lat="43.19016" lon="0.05407">
        <ele>357</ele>
        <time>2017-01-02T16:08:24Z</time>
      </trkpt>
      <trkpt lat="43.19091" lon="0.05427">
        <ele>357</ele>
        <time>2017-01-02T16:10:24Z</time>
      </trkpt>
      <trkpt lat="43.19213" lon="0.05536">
        <ele>356</ele>
        <time>2017-01-02T16:12:24Z</time>
      </trkpt>
      <trkpt lat="43.19335" lon="0.05708">
        <ele>348</ele>
        <time>2017-01-02T16:14:24Z</time>
      </trkpt>
      <trkpt lat="43.19415" lon="0.05886">
        <ele>346</ele>
        <time>2017-01-02T16:16:24Z</time>
      </trkpt>
      <trkpt lat="43.19712" lon="0.05821">
        <ele>341</ele>
        <time>2017-01-02T16:18:24Z</time>
      </trkpt>
    </trkseg>
  </trk>
</gpx>